Aérodrome :
LOGIN :

S'inscrire | Disclaimer

   EN    FR    IT 

 










Légende :    VFR   VFR Marginal   IFR   IFR Intensif   IFR Très Intensif
Visi : 
Plafond : 
>= 8 km
>= 3000ft
5 à 8 km
1000 à 3000 ft
1500m à 5 km
500 à 1000 ft
800 à 1500m
200 à 500 ft
< 800m
< 200 ft
Symboles :   Orages  Brouillard  Fortes neiges  Fortes précipitations  Vent > 20 kt
SIGMETs :   Divers  Orages  Givrage  Turbulence  Onde Orograph.  Cendres Volcan.







- Altitude de l'aérodrome : 1325 ft
- Code IATA : EBU
- Voir les cartes d'approche


LFMH - St-Etienne Boutheon

DERNIER METAR :
  • 141300Z AUTO 25011KT 200V300 9999 SCT035/// BKN088/// BKN110/// ///TCU 11/03 Q1006 BECMG SCT050 OVC070

METARs EXPIRÉS :
  • 141230Z AUTO 24007KT 190V270 9999 FEW035 12/04 Q1007 NOSIG
  • 141200Z AUTO 25009KT 9999 FEW027/// BKN040/// BKN054/// ///TCU 11/03 Q1008 BECMG SCT050 OVC070
  • 141130Z AUTO 24007KT 180V280 9999 BKN044/// ///TCU 11/03 Q1008 BECMG SCT050 OVC070
  • 141100Z AUTO 19007KT 9999 BKN043 BKN049 BKN056 11/02 Q1009 NOSIG
  • 141030Z AUTO 21011KT CAVOK 12/02 Q1009 BECMG 36006KT

TAF AMD TAF LFMH
Valide du 14 à 10h jusqu'au 15 à 09h UTC


141039Z 1410/1509 21010KT 9999 SCT050 OVC070
BECMG 1415/1418 18015G25KT
BECMG 1421/1424 36010KT RA SCT030 OVC040
BECMG 1502/1504 18008KT CAVOK
ATIS : +33 4 77 36 17 51
Pas de NOTAMs connus pour ce terrain.
3 SIGMETs publiés pour la FIR Marseille (LFMM) :
 
Turbulence forte
LFMM SIGMET 7 VALID 141300/141500 LFPW
LFMM MARSEILLE FIR/UIR SEV TURB OBS AT 1300Z WI N4630 E00315 - N4630 E00530 - N4545 E00530 - N4600 E00315 - N4630 E00315 FL160/250 STNR NC=
Onde orographique forte
LFMM SIGMET 6 VALID 141300/141700 LFPW
LFMM MARSEILLE FIR/UIR SEV MTW FCST E OF E00845 SFC/FL320 STNR NC=
Turbulence forte
LFMM SIGMET 5 VALID 141000/141400 LFPW
LFMM MARSEILLE FIR/UIR SEV TURB FCST WI N4345 E00730 - N4315 E00945 - N4115 E00945 - N4115 E00845 - N4230 E00830 - N4300 E00630 - N4345 E00730 SFC/FL070 STNR NC=



MET'MAP, la Météo Aéronautique d'un coup d'oeil ! - Copyright ORBIFLY Décembre 2007 - Disclaimer

ORBIFLY MET'MAP TEAM :

Programmation & Développement : Alexandra Zaïnal
Conception & Développement : Baudouin d'Aumeries
Co-Programmation & Développement : Marc-Olivier Méhu
Soutien technique & logistique : Manuel Goepfert

Contact : metmap@orbifly.com




SOURCES & CREDITS :

   NOAA